Time;durP1;ratioP1;P1;durP2;ratioP2;P2;SDS_P1;SDS_P2;PMS_P1;PMS_P2;Temp;Humidity;BMP_temperature;BMP_pressure;BME280_temperature;BME280_humidity;BME280_pressure;Samples;Min_cycle;Max_cycle;Signal;HPM_P1;HPM_P2
2023/04/27 06:11:58;;;;;;;26.10;12.48;;;5.10;92.70;;;;;;6210877;22;91309;-76
2023/04/27 06:14:24;;;;;;;26.85;11.50;;;5.30;92.00;;;;;;6202045;22;90083;-78
2023/04/27 06:16:50;;;;;;;26.10;11.45;;;5.50;91.70;;;;;;6214927;22;87311;-80
2023/04/27 06:19:15;;;;;;;28.83;12.15;;;5.60;91.20;;;;;;6189102;22;91523;-79
2023/04/27 06:21:41;;;;;;;22.95;10.80;;;5.70;90.90;;;;;;6188009;22;91492;-79
2023/04/27 06:24:07;;;;;;;26.17;10.90;;;5.80;90.70;;;;;;6215359;22;87105;-78
2023/04/27 06:26:32;;;;;;;22.67;11.00;;;6.00;90.60;;;;;;6184455;22;90504;-81
2023/04/27 06:28:58;;;;;;;21.23;10.52;;;6.10;90.10;;;;;;6213700;22;88730;-78
2023/04/27 06:31:25;;;;;;;22.67;10.77;;;6.30;89.20;;;;;;6188654;22;91398;-78
2023/04/27 06:33:51;;;;;;;21.85;11.13;;;6.40;89.60;;;;;;6215243;22;87583;-79
2023/04/27 06:36:17;;;;;;;22.10;10.68;;;6.50;89.60;;;;;;6216458;22;87040;-79
2023/04/27 06:42:15;;;;;;;20.80;10.98;;;6.80;85.80;;;;;;6216884;22;87889;-78
2023/04/27 06:44:40;;;;;;;21.70;10.20;;;6.90;85.80;;;;;;6214154;22;87349;-79
2023/04/27 06:47:06;;;;;;;22.45;11.15;;;7.10;84.90;;;;;;6189661;22;89389;-78
2023/04/27 06:49:31;;;;;;;17.63;9.25;;;7.30;84.60;;;;;;6189094;22;91721;-79
2023/04/27 06:51:57;;;;;;;20.95;10.57;;;7.40;83.30;;;;;;6218589;22;88263;-78
2023/04/27 06:54:23;;;;;;;23.88;10.65;;;7.50;82.60;;;;;;6216996;22;87480;-78
2023/04/27 06:56:49;;;;;;;21.52;10.90;;;7.70;83.30;;;;;;6217634;22;86893;-78
2023/04/27 06:59:16;;;;;;;20.70;9.75;;;7.90;83.40;;;;;;6217361;22;88599;-76
2023/04/27 07:01:41;;;;;;;20.85;10.43;;;8.00;81.10;;;;;;6190218;22;90083;-78
2023/04/27 07:04:07;;;;;;;21.75;9.75;;;8.20;81.80;;;;;;6218145;22;88181;-77
2023/04/27 07:06:32;;;;;;;20.90;11.05;;;8.30;82.00;;;;;;6217381;22;87837;-78
2023/04/27 07:08:58;;;;;;;19.35;11.27;;;8.40;79.40;;;;;;6189444;22;90076;-78
2023/04/27 07:11:43;;;;;;;17.30;10.52;;;8.50;78.50;;;;;;6220295;22;87357;-78
2023/04/27 07:14:08;;;;;;;19.15;10.88;;;8.60;77.40;;;;;;6215201;22;87380;-78
2023/04/27 07:16:34;;;;;;;18.42;10.80;;;8.70;77.40;;;;;;6215813;22;87761;-77
2023/04/27 07:19:00;;;;;;;20.83;9.85;;;8.90;78.60;;;;;;6189326;22;88120;-78
2023/04/27 07:21:27;;;;;;;20.40;10.35;;;9.10;77.90;;;;;;6210178;22;88426;-78
2023/04/27 07:23:53;;;;;;;22.75;10.40;;;9.20;76.50;;;;;;6208887;22;87323;-78
2023/04/27 07:26:18;;;;;;;19.67;9.98;;;9.30;72.70;;;;;;6184791;22;90592;-78
2023/04/27 07:28:46;;;;;;;18.83;9.80;;;9.30;73.80;;;;;;6183853;22;90838;-78
2023/04/27 07:31:12;;;;;;;22.15;10.35;;;9.50;75.30;;;;;;6186500;22;91045;-78
2023/04/27 07:33:38;;;;;;;21.65;9.95;;;9.60;74.00;;;;;;6191480;22;87468;-80
2023/04/27 07:36:04;;;;;;;21.63;10.93;;;9.70;71.40;;;;;;6159039;22;88033;-79
2023/04/27 07:38:30;;;;;;;23.17;10.43;;;9.90;71.50;;;;;;6156090;22;88153;-79
2023/04/27 07:41:03;;;;;;;15.63;9.60;;;10.00;71.90;;;;;;6156462;22;87907;-80
2023/04/27 07:43:30;;;;;;;19.37;9.80;;;10.20;71.00;;;;;;6160599;22;87512;-80
2023/04/27 07:45:57;;;;;;;22.30;10.73;;;10.40;68.60;;;;;;6158218;22;90622;-80
2023/04/27 07:48:23;;;;;;;19.58;10.45;;;10.50;69.70;;;;;;6158963;22;87395;-80
2023/04/27 07:50:48;;;;;;;18.67;10.93;;;10.60;69.10;;;;;;6132528;22;90162;-80
2023/04/27 07:53:14;;;;;;;18.98;11.20;;;10.70;67.20;;;;;;6155367;22;88671;-80
2023/04/27 07:55:42;;;;;;;22.77;10.73;;;10.90;68.30;;;;;;6158991;22;87723;-79
2023/04/27 07:58:08;;;;;;;30.63;12.27;;;11.00;67.30;;;;;;6156654;22;87603;-80
2023/04/27 08:00:33;;;;;;;21.30;11.57;;;11.20;67.20;;;;;;6159407;22;87720;-78
2023/04/27 08:02:59;;;;;;;23.48;11.88;;;11.30;65.50;;;;;;6126551;22;87660;-78
2023/04/27 08:05:25;;;;;;;21.10;12.13;;;11.50;65.00;;;;;;6151857;22;88172;-80
2023/04/27 08:07:52;;;;;;;22.50;12.20;;;11.60;63.80;;;;;;6155125;22;90009;-80
2023/04/27 08:10:18;;;;;;;21.02;12.13;;;11.70;62.10;;;;;;6132385;22;90258;-80
2023/04/27 08:12:44;;;;;;;20.73;11.93;;;11.90;63.10;;;;;;6167525;22;87189;-79
2023/04/27 08:15:10;;;;;;;22.42;11.90;;;12.10;60.90;;;;;;6225767;22;87391;-79
2023/04/27 08:17:37;;;;;;;20.25;12.45;;;12.20;60.60;;;;;;6215604;22;90515;-79
2023/04/27 08:20:05;;;;;;;20.15;12.20;;;12.40;61.10;;;;;;6190485;22;91304;-79
2023/04/27 08:22:30;;;;;;;25.58;12.82;;;12.60;60.10;;;;;;6219169;22;87429;-79
2023/04/27 08:24:56;;;;;;;22.40;12.77;;;12.80;61.10;;;;;;6188707;22;95254;-78
2023/04/27 08:27:21;;;;;;;22.35;11.32;;;12.90;58.70;;;;;;6222586;22;87592;-80
2023/04/27 08:29:47;;;;;;;23.67;11.45;;;13.10;59.10;;;;;;6166595;22;89987;-80
2023/04/27 08:32:14;;;;;;;24.90;12.32;;;13.30;60.80;;;;;;6165500;22;87358;-80
2023/04/27 08:34:40;;;;;;;19.50;11.50;;;13.40;60.30;;;;;;6158335;22;86960;-79
2023/04/27 08:37:06;;;;;;;22.33;11.48;;;13.70;57.80;;;;;;6153756;22;88619;-79
2023/04/27 08:39:32;;;;;;;20.52;10.63;;;13.80;59.10;;;;;;6152581;22;88996;-80
2023/04/27 09:26:30;;;;;;;14.45;8.27;;;16.70;48.90;;;;;;6173024;22;87463;-81
2023/04/27 09:28:57;;;;;;;14.32;7.60;;;16.80;50.40;;;;;;6115640;22;92574;-81
2023/04/27 09:31:33;;;;;;;19.35;8.80;;;17.00;50.20;;;;;;6091775;23;87612;-81
2023/04/27 09:33:59;;;;;;;15.23;7.68;;;17.10;45.80;;;;;;6093005;23;87798;-81
2023/04/27 09:36:25;;;;;;;15.43;8.13;;;17.10;48.90;;;;;;6113440;23;86919;-81
2023/04/27 09:38:51;;;;;;;14.43;8.55;;;17.10;46.90;;;;;;6110488;23;90373;-80
2023/04/27 09:41:18;;;;;;;12.35;7.03;;;17.20;49.30;;;;;;6109875;23;87547;-80
2023/04/27 09:43:45;;;;;;;14.85;8.20;;;17.30;49.30;;;;;;6082282;23;87029;-80
2023/04/27 09:46:12;;;;;;;15.48;9.07;;;17.50;48.20;;;;;;6107138;23;87720;-81
2023/04/27 09:48:38;;;;;;;18.88;9.13;;;17.70;46.70;;;;;;6102373;23;88749;-80
2023/04/27 09:51:04;;;;;;;18.52;8.63;;;17.70;46.20;;;;;;6098637;23;87382;-80
2023/04/27 09:53:38;;;;;;;14.45;6.70;;;17.50;45.20;;;;;;6099329;23;87437;-80
2023/04/27 09:56:24;;;;;;;13.15;7.40;;;17.40;48.10;;;;;;6099914;23;87220;-79
2023/04/27 09:59:15;;;;;;;12.00;6.88;;;17.70;47.00;;;;;;6100562;23;88673;-80
2023/04/27 10:01:50;;;;;;;17.13;8.15;;;18.00;47.20;;;;;;6100004;23;91478;-80
2023/04/27 10:11:21;;;;;;;11.38;6.22;;;18.60;47.00;;;;;;6102173;23;87407;-80
2023/04/27 10:13:52;;;;;;;13.38;7.82;;;19.00;45.30;;;;;;6099861;23;88282;-80
2023/04/27 10:16:19;;;;;;;13.73;6.72;;;19.20;42.60;;;;;;6102987;23;87558;-80
2023/04/27 10:22:04;;;;;;;10.43;5.25;;;19.40;42.70;;;;;;6145336;22;89415;-81
2023/04/27 10:24:42;;;;;;;12.70;7.13;;;19.60;40.30;;;;;;6042717;23;88604;-79
2023/04/27 10:27:11;;;;;;;11.73;7.15;;;19.80;41.90;;;;;;6021718;23;88320;-80
2023/04/27 10:29:39;;;;;;;11.20;7.10;;;19.60;43.20;;;;;;6019131;23;89093;-77
2023/04/27 10:32:10;;;;;;;9.93;6.35;;;19.70;42.80;;;;;;6043696;23;90313;-78
2023/04/27 10:55:19;;;;;;;13.68;7.25;;;21.10;40.20;;;;;;6040530;23;87057;-77
2023/04/27 10:57:55;;;;;;;9.75;7.05;;;21.30;40.40;;;;;;6039756;23;90724;-78
2023/04/27 11:00:29;;;;;;;10.60;6.40;;;21.30;40.30;;;;;;6058416;22;88623;-78
2023/04/27 11:02:57;;;;;;;12.50;6.70;;;21.30;39.90;;;;;;6191962;22;87338;-78
2023/04/27 11:05:28;;;;;;;8.48;6.03;;;21.40;40.80;;;;;;6190792;22;87072;-76
2023/04/27 11:08:10;;;;;;;11.45;6.47;;;21.60;41.10;;;;;;6158851;22;90459;-78
2023/04/27 11:13:43;;;;;;;11.60;6.45;;;21.60;40.50;;;;;;6174753;22;86960;-79
2023/04/27 11:16:20;;;;;;;13.27;7.75;;;21.40;40.20;;;;;;6201284;22;87073;-79
2023/04/27 11:18:53;;;;;;;10.70;6.78;;;21.70;39.40;;;;;;6182390;22;89513;-80
2023/04/27 11:21:20;;;;;;;10.88;6.40;;;21.90;39.20;;;;;;6198444;22;87341;-79
2023/04/27 11:27:13;;;;;;;9.88;5.40;;;21.90;40.20;;;;;;6147993;22;88544;-82
2023/04/27 11:32:42;;;;;;;11.35;6.55;;;22.40;38.30;;;;;;6205791;22;88749;-78
2023/04/27 11:35:09;;;;;;;11.88;7.03;;;22.60;37.90;;;;;;6231849;22;87345;-80
2023/04/27 11:37:40;;;;;;;11.10;6.95;;;22.70;39.10;;;;;;6162016;22;88733;-79
2023/04/27 11:40:08;;;;;;;11.15;6.90;;;22.70;38.60;;;;;;6217160;22;88076;-79
2023/04/27 11:42:35;;;;;;;10.45;6.15;;;22.80;38.70;;;;;;6192370;22;89123;-79
2023/04/27 11:45:06;;;;;;;15.45;6.60;;;22.80;38.50;;;;;;6220113;22;87352;-80
2023/04/27 11:47:33;;;;;;;10.32;6.40;;;22.80;38.90;;;;;;6233012;22;87446;-81
2023/04/27 11:50:03;;;;;;;9.15;5.95;;;22.80;38.70;;;;;;6232726;22;88210;-81
2023/04/27 11:53:10;;;;;;;11.35;5.80;;;22.80;39.30;;;;;;6217549;22;92607;-83
2023/04/27 11:56:17;;;;;;;9.60;6.93;;;23.00;37.70;;;;;;6250770;22;87104;-81
2023/04/27 11:58:43;;;;;;;14.77;8.20;;;23.20;37.20;;;;;;6196328;22;87467;-84
2023/04/27 12:01:10;;;;;;;11.25;7.03;;;23.30;36.80;;;;;;6217728;22;88677;-81
2023/04/27 12:03:36;;;;;;;11.82;7.20;;;23.40;37.20;;;;;;6191589;22;91334;-79
2023/04/27 12:06:02;;;;;;;12.15;7.07;;;23.10;37.80;;;;;;6217406;22;87387;-77
2023/04/27 12:08:28;;;;;;;9.73;6.32;;;22.90;37.70;;;;;;6218459;22;87407;-79
2023/04/27 12:10:54;;;;;;;12.52;7.03;;;22.80;37.60;;;;;;6190880;22;89734;-78
2023/04/27 12:13:20;;;;;;;12.23;8.40;;;23.00;37.40;;;;;;6218694;22;88538;-86
2023/04/27 13:46:23;;;;;;;20.45;9.70;;;27.80;32.90;;;;;;6203405;22;87360;-75
2023/04/27 13:48:49;;;;;;;11.32;7.25;;;27.80;29.60;;;;;;6219164;22;87129;-80
2023/04/27 13:51:14;;;;;;;13.70;9.40;;;27.70;31.00;;;;;;6217693;22;87313;-78
2023/04/27 13:53:40;;;;;;;14.82;10.13;;;27.70;31.20;;;;;;6218772;22;88466;-78
2023/04/27 13:56:06;;;;;;;13.93;9.70;;;27.90;30.60;;;;;;6218302;22;87732;-76
2023/04/27 13:58:32;;;;;;;12.48;8.70;;;28.00;32.80;;;;;;6218309;22;88454;-76
2023/04/27 14:00:58;;;;;;;17.85;9.63;;;28.10;31.30;;;;;;6218625;22;87569;-83
2023/04/27 14:03:23;;;;;;;12.95;10.20;;;28.00;32.00;;;;;;6217735;22;88727;-77
2023/04/27 14:05:52;;;;;;;13.95;9.07;;;27.50;30.80;;;;;;6218004;22;87373;-77
2023/04/27 14:08:18;;;;;;;12.10;8.73;;;27.10;31.70;;;;;;6218861;22;87453;-77
2023/04/27 14:10:44;;;;;;;12.88;8.98;;;27.20;33.60;;;;;;6219212;22;87317;-79
2023/04/27 14:40:33;;;;;;;18.33;10.02;;;27.50;32.60;;;;;;6217297;22;87900;-78
2023/04/27 14:42:59;;;;;;;14.25;10.65;;;28.10;33.00;;;;;;6217253;22;87360;-77
2023/04/27 14:45:25;;;;;;;13.93;9.82;;;28.40;31.90;;;;;;6217947;22;87340;-78
2023/04/27 14:47:51;;;;;;;14.10;9.90;;;28.80;30.90;;;;;;6218279;22;86868;-77
2023/04/27 14:50:16;;;;;;;17.23;10.27;;;29.20;32.20;;;;;;6218584;22;88324;-76
2023/04/27 14:52:42;;;;;;;14.10;9.85;;;29.60;29.90;;;;;;6216921;22;88348;-76
2023/04/27 14:55:08;;;;;;;13.52;9.45;;;29.90;31.40;;;;;;6212642;22;88460;-74
2023/04/27 14:57:35;;;;;;;12.40;9.80;;;30.10;30.20;;;;;;6217457;22;87488;-76
2023/04/27 15:00:04;;;;;;;13.60;10.77;;;30.30;30.20;;;;;;6218062;22;89078;-78
2023/04/27 15:02:30;;;;;;;13.18;10.00;;;30.60;28.90;;;;;;6217465;22;88383;-78
2023/04/27 15:04:56;;;;;;;12.90;10.15;;;30.70;30.00;;;;;;6190338;22;87418;-78
2023/04/27 15:07:21;;;;;;;13.38;9.73;;;30.80;29.60;;;;;;6218286;22;87819;-79
2023/04/27 15:09:47;;;;;;;13.05;9.45;;;30.50;30.30;;;;;;6218349;22;88208;-79
2023/04/27 15:12:12;;;;;;;12.70;9.90;;;30.50;30.90;;;;;;6218850;22;87998;-80
2023/04/27 15:14:38;;;;;;;15.25;9.45;;;30.60;29.30;;;;;;6213743;22;87568;-77
2023/04/27 15:17:04;;;;;;;17.10;10.25;;;30.50;30.00;;;;;;6216016;22;87467;-78
2023/04/27 15:19:30;;;;;;;14.38;9.52;;;30.10;29.80;;;;;;6215811;22;90114;-77
2023/04/27 15:21:55;;;;;;;13.05;10.80;;;29.50;31.80;;;;;;6216954;22;89520;-78
2023/04/27 15:24:21;;;;;;;13.98;9.32;;;29.20;29.90;;;;;;6216464;22;87700;-76
2023/04/27 15:26:47;;;;;;;16.83;10.57;;;28.80;31.50;;;;;;6215275;22;87696;-76
2023/04/27 15:29:13;;;;;;;14.68;8.88;;;28.30;30.90;;;;;;6215984;22;89049;-77
2023/04/27 15:31:38;;;;;;;14.20;10.00;;;28.00;32.80;;;;;;6216870;22;87984;-77
2023/04/27 15:34:04;;;;;;;13.35;9.73;;;27.50;33.50;;;;;;6189071;22;87608;-78
2023/04/27 15:36:30;;;;;;;12.77;9.40;;;27.10;34.00;;;;;;6217702;22;87222;-77
2023/04/27 15:38:56;;;;;;;13.43;10.38;;;26.70;34.20;;;;;;6216026;22;87857;-78
2023/04/27 15:41:22;;;;;;;14.05;9.93;;;26.20;34.20;;;;;;6216635;22;88844;-77
2023/04/27 15:43:49;;;;;;;16.48;10.13;;;25.70;35.50;;;;;;6210277;22;88561;-80
2023/04/27 15:46:15;;;;;;;15.65;10.45;;;25.40;35.30;;;;;;6214945;22;87197;-82
2023/04/27 15:48:41;;;;;;;13.13;10.45;;;25.20;35.90;;;;;;6216394;22;87514;-81
2023/04/27 15:51:06;;;;;;;16.50;10.48;;;25.00;36.10;;;;;;6215971;22;87642;-81
2023/04/27 15:53:32;;;;;;;12.48;10.95;;;24.70;36.90;;;;;;6216727;22;87417;-82
2023/04/27 15:56:03;;;;;;;17.20;11.10;;;24.40;37.00;;;;;;6188892;22;89716;-81
2023/04/27 15:58:29;;;;;;;17.33;11.05;;;24.20;37.80;;;;;;6216033;22;89292;-78
2023/04/27 16:00:55;;;;;;;14.80;10.90;;;24.00;38.50;;;;;;6216870;22;88225;-79
2023/04/27 16:03:20;;;;;;;15.13;12.32;;;23.80;38.10;;;;;;6216184;22;87450;-82
2023/04/27 16:05:49;;;;;;;13.82;10.88;;;23.70;37.70;;;;;;6216630;22;87697;-79
2023/04/27 16:08:15;;;;;;;15.40;11.25;;;23.80;38.20;;;;;;6214672;22;89697;-80
2023/04/27 16:10:41;;;;;;;17.65;12.73;;;23.80;37.90;;;;;;6216721;22;90551;-79
2023/04/27 16:13:06;;;;;;;15.88;12.10;;;23.70;37.80;;;;;;6216587;22;87484;-79
2023/04/27 16:15:32;;;;;;;14.65;11.77;;;23.70;38.00;;;;;;6215822;22;87512;-79
2023/04/27 16:17:58;;;;;;;25.45;12.15;;;23.80;38.10;;;;;;6188597;22;90575;-80
2023/04/27 16:20:24;;;;;;;16.95;12.60;;;23.60;38.50;;;;;;6188971;22;90242;-79
2023/04/27 16:22:50;;;;;;;17.20;12.52;;;23.50;38.00;;;;;;6188141;22;87377;-79
2023/04/27 16:25:16;;;;;;;18.92;12.35;;;23.10;38.50;;;;;;6216507;22;86890;-78
2023/04/27 16:27:42;;;;;;;18.60;12.90;;;23.20;38.30;;;;;;6216533;22;88702;-79
2023/04/27 16:30:08;;;;;;;17.08;12.15;;;23.20;38.60;;;;;;6215607;22;89000;-78
2023/04/27 16:32:34;;;;;;;16.67;12.73;;;23.10;38.10;;;;;;6212071;22;88495;-78
2023/04/27 16:35:00;;;;;;;17.23;12.52;;;23.10;38.70;;;;;;6185803;22;88899;-78
2023/04/27 16:37:25;;;;;;;16.73;11.93;;;23.00;38.50;;;;;;6213823;22;88716;-78
2023/04/27 16:39:51;;;;;;;16.55;12.75;;;22.70;38.80;;;;;;6215843;22;88371;-78
2023/04/27 16:42:20;;;;;;;18.83;12.77;;;22.50;38.00;;;;;;6216004;22;87434;-79
2023/04/27 16:44:46;;;;;;;15.63;11.63;;;22.10;38.80;;;;;;6188602;22;90729;-77
2023/04/27 16:47:12;;;;;;;16.23;12.30;;;21.90;40.60;;;;;;6216194;22;88573;-78
2023/04/27 16:49:37;;;;;;;26.55;13.52;;;21.60;41.30;;;;;;6217610;22;87406;-79
2023/04/27 16:52:10;;;;;;;19.65;13.35;;;21.50;41.30;;;;;;6219088;22;87347;-83
2023/04/27 16:54:35;;;;;;;19.58;12.82;;;21.10;41.20;;;;;;6216850;22;87238;-79
2023/04/27 16:57:01;;;;;;;18.60;12.60;;;20.90;42.20;;;;;;6189444;22;91069;-78
2023/04/27 16:59:27;;;;;;;17.85;12.65;;;20.70;43.10;;;;;;6188106;22;92214;-79
2023/04/27 17:01:53;;;;;;;19.17;13.48;;;20.30;42.80;;;;;;6216690;22;87416;-79
2023/04/27 17:04:18;;;;;;;18.42;12.80;;;20.20;43.80;;;;;;6189104;22;90403;-79
2023/04/27 17:06:46;;;;;;;19.48;12.13;;;20.00;44.60;;;;;;6216016;22;88292;-78
2023/04/27 17:09:12;;;;;;;19.85;13.00;;;19.70;44.60;;;;;;6214910;22;88429;-79
2023/04/27 17:11:38;;;;;;;22.35;13.90;;;19.50;44.50;;;;;;6188511;22;87470;-78
2023/04/27 17:14:04;;;;;;;21.50;13.05;;;19.30;44.70;;;;;;6215849;22;87772;-78
2023/04/27 17:16:30;;;;;;;19.92;12.50;;;19.10;45.20;;;;;;6215990;22;88648;-78
2023/04/27 17:18:56;;;;;;;21.05;13.65;;;19.00;46.00;;;;;;6216011;22;87494;-78
2023/04/27 17:21:23;;;;;;;17.58;12.00;;;18.80;46.10;;;;;;6215013;22;88364;-79
2023/04/27 17:23:50;;;;;;;23.77;14.00;;;18.60;47.30;;;;;;6215441;22;87422;-78
2023/04/27 17:26:18;;;;;;;17.98;12.70;;;18.50;47.00;;;;;;6216495;22;88624;-78
2023/04/27 17:28:45;;;;;;;22.77;13.55;;;18.20;47.10;;;;;;6187429;22;91030;-79
2023/04/27 17:31:11;;;;;;;30.83;15.32;;;18.10;47.40;;;;;;6188941;22;87534;-78
2023/04/27 17:33:42;;;;;;;22.48;14.07;;;17.80;45.90;;;;;;6216824;22;87110;-78
2023/04/27 17:36:08;;;;;;;24.42;14.45;;;17.60;48.20;;;;;;6216455;22;88473;-78
2023/04/27 17:38:34;;;;;;;22.98;14.32;;;17.50;48.40;;;;;;6216520;22;88144;-78
2023/04/27 17:41:00;;;;;;;25.63;14.68;;;17.30;48.60;;;;;;6216140;22;87562;-78
2023/04/27 17:43:26;;;;;;;22.42;14.23;;;17.30;48.70;;;;;;6217127;22;87271;-79
2023/04/27 17:45:51;;;;;;;23.42;13.55;;;17.10;49.80;;;;;;6214886;22;89679;-78
2023/04/27 17:48:17;;;;;;;20.88;13.90;;;16.90;49.30;;;;;;6217052;22;89146;-78
2023/04/27 17:50:43;;;;;;;25.48;15.15;;;16.80;50.00;;;;;;6218095;22;87438;-78
2023/04/27 17:53:08;;;;;;;22.35;15.02;;;16.70;50.60;;;;;;6216629;22;87669;-78
2023/04/27 17:55:34;;;;;;;25.13;14.00;;;16.60;50.10;;;;;;6189519;22;90156;-80
2023/04/27 17:58:02;;;;;;;24.67;14.70;;;16.50;51.50;;;;;;6221372;22;88480;-79
2023/04/27 18:00:29;;;;;;;23.60;13.88;;;16.50;51.50;;;;;;6217936;22;87458;-78
2023/04/27 18:02:54;;;;;;;24.80;15.90;;;16.40;52.80;;;;;;6216991;22;86806;-79
2023/04/27 18:05:20;;;;;;;28.75;15.52;;;16.30;51.10;;;;;;6188074;22;91788;-79
2023/04/27 18:07:46;;;;;;;25.05;14.45;;;16.20;51.90;;;;;;6213312;22;88039;-79
2023/04/27 18:10:12;;;;;;;26.50;14.77;;;16.10;51.70;;;;;;6211967;22;88441;-79
2023/04/27 18:12:37;;;;;;;29.92;14.32;;;16.00;51.50;;;;;;6212713;22;87685;-79
2023/04/27 18:15:03;;;;;;;26.90;14.70;;;15.90;52.00;;;;;;6213343;22;88610;-79
2023/04/27 18:17:29;;;;;;;24.30;14.35;;;15.80;52.70;;;;;;6216219;22;88017;-79
2023/04/27 18:19:55;;;;;;;24.25;14.15;;;15.70;53.30;;;;;;6189403;22;87103;-79
2023/04/27 18:22:21;;;;;;;23.95;13.73;;;15.60;53.70;;;;;;6187943;22;89235;-79
2023/04/27 18:24:47;;;;;;;20.80;12.57;;;15.60;53.00;;;;;;6213982;22;88580;-78
2023/04/27 18:27:16;;;;;;;25.75;13.82;;;15.50;53.80;;;;;;6189839;22;90038;-80
2023/04/27 18:29:42;;;;;;;23.02;14.32;;;15.40;53.50;;;;;;6216150;22;87453;-79
2023/04/27 18:32:08;;;;;;;25.98;13.15;;;15.30;55.00;;;;;;6189664;22;88954;-80
2023/04/27 18:34:33;;;;;;;26.02;13.30;;;15.20;54.00;;;;;;6217172;22;89191;-80
2023/04/27 18:36:59;;;;;;;26.05;13.02;;;15.20;54.80;;;;;;6217454;22;88236;-79
2023/04/27 18:39:25;;;;;;;22.00;13.80;;;15.10;55.20;;;;;;6216046;22;87330;-80
2023/04/27 18:41:51;;;;;;;22.30;15.07;;;15.00;55.70;;;;;;6217036;22;87764;-80
2023/04/27 18:44:16;;;;;;;19.50;13.43;;;14.90;55.40;;;;;;6216957;22;88820;-80
2023/04/27 18:46:43;;;;;;;24.58;13.10;;;14.80;55.80;;;;;;6217299;22;87955;-80
2023/04/27 18:49:09;;;;;;;23.08;13.85;;;14.70;56.60;;;;;;6190085;22;87363;-80
2023/04/27 18:51:34;;;;;;;26.08;14.63;;;14.70;56.10;;;;;;6217255;22;87062;-80
2023/04/27 18:54:00;;;;;;;28.17;13.82;;;14.60;56.00;;;;;;6216864;22;88558;-79
2023/04/27 18:56:26;;;;;;;21.67;11.82;;;14.50;56.20;;;;;;6217163;22;87822;-79
2023/04/27 18:58:52;;;;;;;26.67;14.70;;;14.50;57.20;;;;;;6216396;22;88060;-79
2023/04/27 19:01:30;;;;;;;29.23;15.43;;;14.40;56.90;;;;;;6216444;22;87498;-79
2023/04/27 19:03:56;;;;;;;24.75;14.75;;;14.30;56.10;;;;;;6188672;22;89368;-79
2023/04/27 19:06:22;;;;;;;25.48;14.18;;;14.20;56.60;;;;;;6189614;22;91484;-79
2023/04/27 19:08:48;;;;;;;23.55;13.35;;;14.10;57.00;;;;;;6190423;22;87409;-79
2023/04/27 19:11:14;;;;;;;26.73;15.00;;;14.10;57.50;;;;;;6216678;22;87767;-79
2023/04/27 19:13:42;;;;;;;27.38;14.77;;;14.00;56.80;;;;;;6216881;22;88978;-79
2023/04/27 19:16:08;;;;;;;24.73;14.63;;;13.90;57.50;;;;;;6217153;22;89019;-79
2023/04/27 19:18:34;;;;;;;26.75;15.15;;;13.80;56.60;;;;;;6216784;22;87461;-79
2023/04/27 19:21:00;;;;;;;25.67;14.85;;;13.80;58.60;;;;;;6216567;22;87861;-80
2023/04/27 19:23:26;;;;;;;25.23;14.77;;;13.70;58.50;;;;;;6216559;22;89873;-79
2023/04/27 19:25:52;;;;;;;25.35;14.00;;;13.70;57.70;;;;;;6216671;22;88552;-79
2023/04/27 19:28:18;;;;;;;29.15;13.75;;;13.60;57.70;;;;;;6217010;22;87119;-79
2023/04/27 19:30:47;;;;;;;29.42;14.57;;;13.60;57.70;;;;;;6189431;22;88932;-79
2023/04/27 19:33:15;;;;;;;29.52;13.63;;;13.50;58.70;;;;;;6189294;22;90752;-79
2023/04/27 19:35:41;;;;;;;26.40;14.52;;;13.50;58.50;;;;;;6189172;22;90604;-79
2023/04/27 19:38:06;;;;;;;29.40;14.40;;;13.40;59.00;;;;;;6216975;22;86927;-79
2023/04/27 19:40:32;;;;;;;23.70;13.35;;;13.30;59.30;;;;;;6188940;22;90176;-79
2023/04/27 19:42:58;;;;;;;28.27;13.70;;;13.30;59.10;;;;;;6216568;22;88526;-79
2023/04/27 19:45:23;;;;;;;22.90;14.43;;;13.30;59.10;;;;;;6189871;22;91324;-79
2023/04/27 19:47:49;;;;;;;27.98;15.20;;;13.20;59.80;;;;;;6214695;22;88194;-80
2023/04/27 19:50:16;;;;;;;28.40;14.57;;;13.20;59.40;;;;;;6217050;22;87487;-80
2023/04/27 19:52:42;;;;;;;27.75;15.20;;;13.10;59.50;;;;;;6217636;22;87603;-80
2023/04/27 19:55:08;;;;;;;26.50;14.75;;;13.10;59.80;;;;;;6217890;22;88253;-80
2023/04/27 19:57:34;;;;;;;29.48;14.15;;;13.00;61.00;;;;;;6217539;22;87041;-79
2023/04/27 20:00:00;;;;;;;27.08;14.80;;;13.00;61.00;;;;;;6216938;22;87880;-79
2023/04/27 20:02:26;;;;;;;29.27;15.00;;;12.90;61.50;;;;;;6216595;22;88179;-79
2023/04/27 20:04:52;;;;;;;25.60;15.02;;;12.90;60.20;;;;;;6217034;22;87552;-79
2023/04/27 20:07:17;;;;;;;27.63;15.23;;;12.80;59.60;;;;;;6216951;22;87545;-79
2023/04/27 20:09:43;;;;;;;27.92;14.52;;;12.80;60.90;;;;;;6216458;22;88035;-79
2023/04/27 20:12:09;;;;;;;26.48;15.20;;;12.80;61.10;;;;;;6188994;22;90093;-79
2023/04/27 20:14:37;;;;;;;24.48;13.80;;;12.70;60.80;;;;;;6188887;22;91078;-79
2023/04/27 20:17:03;;;;;;;30.00;15.38;;;12.70;61.00;;;;;;6189529;22;87466;-79
2023/04/27 20:19:29;;;;;;;25.83;14.32;;;12.70;61.00;;;;;;6218483;22;87492;-79
2023/04/27 20:21:55;;;;;;;32.28;15.10;;;12.70;60.90;;;;;;6215765;22;88646;-79
2023/04/27 20:24:21;;;;;;;31.52;13.90;;;12.60;60.30;;;;;;6216278;22;88481;-78
2023/04/27 20:26:47;;;;;;;25.77;14.90;;;12.60;60.20;;;;;;6215283;22;87561;-79
2023/04/27 20:29:13;;;;;;;29.65;15.38;;;12.50;60.80;;;;;;6217254;22;86935;-79
2023/04/27 20:31:39;;;;;;;29.77;14.30;;;12.50;60.50;;;;;;6189016;22;90554;-79
2023/04/27 20:34:05;;;;;;;29.20;15.18;;;12.50;60.80;;;;;;6216335;22;88959;-79
2023/04/27 20:36:31;;;;;;;25.55;14.27;;;12.50;60.50;;;;;;6216661;22;88316;-79
2023/04/27 20:38:59;;;;;;;27.02;14.43;;;12.40;61.20;;;;;;6216653;22;87430;-78
2023/04/27 20:41:26;;;;;;;28.67;14.57;;;12.40;61.00;;;;;;6188841;22;90149;-79
2023/04/27 20:43:52;;;;;;;25.38;14.23;;;12.40;60.40;;;;;;6216764;22;88439;-79
2023/04/27 20:46:23;;;;;;;24.52;14.27;;;12.40;60.70;;;;;;6188951;22;87233;-79
2023/04/27 20:48:49;;;;;;;26.25;14.18;;;12.40;60.60;;;;;;6188943;22;89937;-79
2023/04/27 20:51:15;;;;;;;24.63;14.32;;;12.40;60.60;;;;;;6189228;22;90993;-79
2023/04/27 20:53:41;;;;;;;25.85;14.57;;;12.40;62.20;;;;;;6188113;22;90213;-80
2023/04/27 20:56:07;;;;;;;26.63;15.23;;;12.30;62.80;;;;;;6188609;22;87497;-79
2023/04/27 20:58:33;;;;;;;28.05;13.63;;;12.30;61.80;;;;;;6217016;22;87502;-79
2023/04/27 21:00:59;;;;;;;31.35;15.68;;;12.30;62.80;;;;;;6215806;22;89445;-79
2023/04/27 21:03:25;;;;;;;24.80;13.77;;;12.30;63.50;;;;;;6217342;22;89260;-80
2023/04/27 21:05:50;;;;;;;27.50;14.50;;;12.20;62.80;;;;;;6216725;22;87231;-79
2023/04/27 21:08:16;;;;;;;24.73;14.00;;;12.20;62.30;;;;;;6216093;22;87377;-79
2023/04/27 21:10:42;;;;;;;27.73;13.65;;;12.20;62.80;;;;;;6216697;22;88303;-79
2023/04/27 21:13:08;;;;;;;27.85;14.13;;;12.20;61.90;;;;;;6216166;22;88306;-79
2023/04/27 21:15:34;;;;;;;27.67;14.95;;;12.20;60.40;;;;;;6189701;22;87491;-78
2023/04/27 21:18:00;;;;;;;25.33;14.23;;;12.10;62.80;;;;;;6217216;22;86942;-79
2023/04/27 21:20:26;;;;;;;26.27;14.85;;;12.10;64.40;;;;;;6189131;22;90405;-78
2023/04/27 21:22:51;;;;;;;24.33;14.95;;;12.10;64.70;;;;;;6216363;22;88807;-79
2023/04/27 21:25:17;;;;;;;28.20;14.73;;;12.00;64.70;;;;;;6215889;22;88262;-78
2023/04/27 21:27:43;;;;;;;22.88;14.13;;;12.00;65.40;;;;;;6216377;22;87484;-78
2023/04/27 21:30:12;;;;;;;26.63;15.20;;;12.00;65.70;;;;;;6215767;22;88122;-78
2023/04/27 21:32:38;;;;;;;27.17;15.52;;;12.00;65.70;;;;;;6216311;22;88335;-78
2023/04/27 21:35:06;;;;;;;25.80;15.85;;;12.00;66.90;;;;;;6189136;22;87550;-78
2023/04/27 21:37:32;;;;;;;22.80;14.48;;;11.90;67.50;;;;;;6216877;22;87856;-78
2023/04/27 21:39:57;;;;;;;31.00;16.50;;;11.90;68.60;;;;;;6216288;22;88107;-78
2023/04/27 21:42:23;;;;;;;22.05;13.30;;;11.90;68.90;;;;;;6188510;22;88845;-78
2023/04/27 21:44:52;;;;;;;26.15;15.13;;;11.90;67.50;;;;;;6216779;22;87542;-78
2023/04/27 21:47:17;;;;;;;30.85;16.23;;;11.90;68.70;;;;;;6216177;22;88012;-78
2023/04/27 21:49:43;;;;;;;24.27;14.50;;;11.80;68.30;;;;;;6215910;22;89696;-78
2023/04/27 21:52:09;;;;;;;26.23;15.10;;;11.80;69.10;;;;;;6215876;22;88804;-78
2023/04/27 21:54:35;;;;;;;26.13;14.80;;;11.80;68.10;;;;;;6216241;22;87775;-78
2023/04/27 21:57:01;;;;;;;24.27;14.10;;;11.80;66.60;;;;;;6216288;22;87439;-78
2023/04/27 21:59:27;;;;;;;23.30;14.23;;;11.70;68.40;;;;;;6216402;22;88571;-78
2023/04/27 22:01:56;;;;;;;24.45;14.50;;;11.70;68.30;;;;;;6215952;22;88027;-79
2023/04/27 22:04:22;;;;;;;30.23;14.88;;;11.70;68.70;;;;;;6216088;22;87985;-78
2023/04/27 22:06:47;;;;;;;28.08;15.10;;;11.70;70.20;;;;;;6217257;22;87596;-78